Αρχική σελίδα
METAR-TAF:

METAR-TAF

Αεροδρόμια :

Seiyun, Υεμένη

γεωγραφικό πλάτος: 15-58N, γεωγραφικό μήκος: 048-48E, υψόμετρο: 701 μ

Παρών καιρός

Η αναφορά έγινε 21 λεπτά πριν, στις 18:00 UTC
Άνεμος 6 kt από BA, μεταβλητός μεταξύ Β και Α/NA
Θερμοκρασία 37°C
Υγρασία 4%
Πίεση 1007 hPa
Ορατότητα 10 χλμ και άνω
Δεν υπάρχουν νέφη με βάση κάτω από τα 1500 μ. και δεν υπάρχουν νέφη σωρειτομελανίτες.

METAR: OYSY 301800Z 04006KT 360V120 CAVOK 37/M12 Q1007

Χρόνος: 21:21 (18:21 UTC)


TAF: λείπει

Μετεωρολογικές αναφορές και προγνώσεις για περισσότερα από 4000 αεροδρόμια (δελτία METAR και TAF).

Οι διαθέσιμοι σταθμοί απεικονίζονται στο χάρτη με κίτρινες και κόκκινες κουκκίδες.

Μετακινήστε το ποντίκι πάνω από τις κουκκίδες για να δείτε το όνομα του σταθμού.

Στη συνέχεια, κάντε κλικ για να δείτε τις μετεωρολογικές αναφορές και τις προγνώσεις καιρού.

Για να αλλάξετε το χάρτη: κάντε κλικ στα πράσινα κουμπιά με τον μαύρο σταυρό για να ζουμάρετε, στο πράσινο κουμπί με την παύλα για να αφαιρέσετε το ζουμ ή στα πράσινα βέλη για να αντιπαραβάλλετε χάρτες.


METAR-TAF: